This is the latest recevied weather packets stored in our database for station/object KF0JJO. If no packets are shown the sender has not sent any weather packets the latest 10 day(s).
| Time | Temp. | Humidity | Pressure | Rain* | Wind** | Luminosity | Snow |
|---|---|---|---|---|---|---|---|
| 1776986472 | 22.22° C | 71% | 1028.4 hPa | 0 mm | - | 50 W/m² | - |
| 1776986169 | 22.22° C | 71% | 1028.4 hPa | 0 mm | - | 25 W/m² | - |
| 1776985865 | 22.22° C | 71% | 1028.3 hPa | 0 mm | - | 12 W/m² | - |
| 1776985562 | 22.78° C | 70% | 1028.4 hPa | 0 mm | - | 17 W/m² | - |
| 1776985258 | 22.78° C | 70% | 1028.2 hPa | 0 mm | - | 32 W/m² | - |
| 1776984954 | 22.78° C | 71% | 1028.3 hPa | 0 mm | - | 51 W/m² | - |
| 1776984650 | 22.22° C | 71% | 1028.3 hPa | 0 mm | - | 92 W/m² | - |
| 1776984345 | 22.22° C | 71% | 1028.3 hPa | 0 mm | - | 98 W/m² | - |
| 1776984042 | 22.22° C | 72% | 1028.5 hPa | 0 mm | - | 96 W/m² | - |
| 1776983737 | 22.22° C | 72% | 1028.6 hPa | 0 mm | - | 96 W/m² | - |
| 1776983434 | 22.22° C | 72% | 1028.3 hPa | 0 mm | - | 100 W/m² | - |
| 1776983131 | 22.22° C | 72% | 1028.5 hPa | 0 mm | - | 81 W/m² | - |
| 1776982828 | 22.22° C | 72% | 1028.5 hPa | 0 mm | - | 66 W/m² | - |
| 1776982526 | 22.22° C | 72% | 1028.6 hPa | 0 mm | - | 48 W/m² | - |
| 1776982220 | 22.22° C | 72% | 1028.5 hPa | 0 mm | - | 47 W/m² | - |
| 1776981915 | 22.22° C | 72% | 1028.5 hPa | 0 mm | - | 33 W/m² | - |
| 1776981611 | 22.22° C | 72% | 1028.5 hPa | 0 mm | - | 23 W/m² | - |
| 1776981306 | 22.22° C | 72% | 1028.5 hPa | 0 mm | - | 36 W/m² | - |
| 1776981002 | 22.22° C | 72% | 1028.4 hPa | 0 mm | - | 82 W/m² | - |
| 1776980699 | 22.22° C | 73% | 1028.5 hPa | 0 mm | - | 80 W/m² | - |
| 1776980395 | 22.22° C | 73% | 1028.4 hPa | 0 mm | - | 112 W/m² | - |
| 1776980091 | 22.22° C | 74% | 1028.6 hPa | 0 mm | - | 100 W/m² | - |
| 1776979787 | 21.67° C | 74% | 1028.4 hPa | 0 mm | - | 187 W/m² | - |
| 1776979484 | 21.67° C | 74% | 1028.8 hPa | 0 mm | - | 86 W/m² | - |
| 1776979180 | 21.67° C | 75% | 1029 hPa | 0 mm | - | 59 W/m² | - |
* Rain latest hour (hover to see other rain measurements)
** Current wind speed in m/s (hover to see current wind gust speed)